Time;durP1;ratioP1;P1;durP2;ratioP2;P2;SDS_P1;SDS_P2;PMS_P1;PMS_P2;Temp;Humidity;BMP_temperature;BMP_pressure;BME280_temperature;BME280_humidity;BME280_pressure;Samples;Min_cycle;Max_cycle;Signal;HPM_P1;HPM_P2
2022/07/05 00:00:19;;;;;;;1.45;1.20;;;18.30;97.60;;;18.77;69.33;101381.88;5226736;28;20129;-68
2022/07/05 00:02:51;;;;;;;2.78;1.30;;;18.30;97.80;;;18.76;69.36;101383.63;5221305;28;20059;-68
2022/07/05 00:05:23;;;;;;;2.33;1.48;;;18.30;98.00;;;18.75;69.36;101396.81;5206042;28;20056;-68
2022/07/05 00:07:55;;;;;;;1.73;1.23;;;18.30;98.20;;;18.73;69.38;101388.00;5206044;28;20052;-69
2022/07/05 00:10:29;;;;;;;1.55;1.00;;;18.30;98.30;;;18.72;69.48;101391.53;5206163;28;20042;-68
2022/07/05 00:13:01;;;;;;;1.65;1.25;;;18.20;98.40;;;18.67;69.40;101389.72;5205767;28;20408;-69
2022/07/05 00:15:33;;;;;;;1.40;1.00;;;18.20;98.50;;;18.65;69.54;101382.63;5205661;28;20068;-68
2022/07/05 00:18:09;;;;;;;1.92;1.30;;;18.20;98.70;;;18.62;69.88;101380.81;5209309;28;20052;-68
2022/07/05 00:20:41;;;;;;;1.83;1.20;;;18.20;98.90;;;18.59;70.04;101386.06;5243105;28;20045;-68
2022/07/05 00:23:13;;;;;;;3.70;1.10;;;18.10;98.90;;;18.54;70.00;101389.53;5208673;28;20099;-69
2022/07/05 00:25:47;;;;;;;1.23;1.05;;;18.10;99.00;;;18.52;69.96;101393.88;5246621;28;20048;-68
2022/07/05 00:28:19;;;;;;;2.85;1.20;;;18.10;99.00;;;18.48;70.07;101386.81;5247044;28;20047;-69
2022/07/05 00:30:51;;;;;;;1.85;1.30;;;18.00;99.10;;;18.44;69.68;101391.16;5241838;28;20496;-67
2022/07/05 00:33:23;;;;;;;1.63;1.17;;;18.00;99.00;;;18.42;69.65;101388.50;5208669;28;20144;-68
2022/07/05 00:35:56;;;;;;;1.63;1.20;;;18.00;99.00;;;18.39;69.91;101390.22;5209588;28;20163;-67
2022/07/05 00:38:28;;;;;;;1.75;1.30;;;17.90;99.10;;;18.35;70.29;101393.69;5248533;28;20624;-69
2022/07/05 00:41:01;;;;;;;2.33;1.10;;;17.90;99.30;;;18.33;70.90;101395.44;5215316;28;20662;-68
2022/07/05 00:43:34;;;;;;;1.77;1.20;;;17.80;99.60;;;18.30;71.22;101398.00;5215377;28;20132;-68
2022/07/05 00:46:06;;;;;;;1.40;1.20;;;17.90;99.90;;;18.28;71.27;101410.31;5248242;28;20083;-68
2022/07/05 00:48:38;;;;;;;2.20;1.33;;;17.80;99.90;;;18.21;71.73;101403.19;5215058;28;20048;-68
2022/07/05 00:51:12;;;;;;;2.03;1.42;;;17.80;99.90;;;18.17;71.72;101397.84;5248377;28;20102;-67
2022/07/05 00:53:45;;;;;;;1.80;1.38;;;17.80;99.90;;;18.16;71.73;101403.13;5233147;28;20485;-68
2022/07/05 00:56:20;;;;;;;1.23;1.13;;;17.70;99.90;;;18.17;71.30;101397.84;5214963;28;20451;-68
2022/07/05 00:58:53;;;;;;;1.58;1.30;;;17.80;99.90;;;18.16;71.38;101403.13;5233046;28;20033;-69
2022/07/05 01:01:28;;;;;;;2.15;1.50;;;17.70;99.90;;;18.14;71.69;101397.81;5222836;28;20128;-68
2022/07/05 01:04:00;;;;;;;1.48;1.38;;;17.70;99.90;;;18.08;71.89;101403.03;5215130;28;20087;-68
2022/07/05 01:06:33;;;;;;;1.55;1.13;;;17.60;99.90;;;18.02;71.82;101402.03;5232743;28;20505;-68
2022/07/05 01:09:06;;;;;;;1.40;1.30;;;17.60;99.90;;;17.97;71.83;101399.34;5232857;28;20040;-68
2022/07/05 01:11:40;;;;;;;2.28;1.42;;;17.60;99.90;;;17.94;72.10;101399.31;5251885;28;20116;-68
2022/07/05 01:14:14;;;;;;;2.05;1.25;;;17.50;99.90;;;17.90;72.27;101403.63;5235710;28;20148;-68
2022/07/05 01:16:46;;;;;;;1.50;1.15;;;17.50;99.90;;;17.87;72.82;101402.72;5235163;28;20053;-68
2022/07/05 01:19:21;;;;;;;1.77;1.13;;;17.50;99.90;;;17.82;73.27;101410.56;5235684;28;20133;-69
2022/07/05 01:21:53;;;;;;;2.55;1.27;;;17.40;99.90;;;17.80;73.52;101407.03;5253366;28;20496;-68
2022/07/05 01:24:27;;;;;;;1.60;1.25;;;17.40;99.90;;;17.81;73.54;101406.16;5235646;28;20053;-68
2022/07/05 01:26:59;;;;;;;1.42;1.33;;;17.40;99.90;;;17.81;73.10;101405.28;5235116;28;20117;-68
2022/07/05 01:29:31;;;;;;;2.35;1.30;;;17.40;99.90;;;17.83;72.64;101411.44;5253390;28;20082;-68
2022/07/05 01:32:04;;;;;;;1.48;1.35;;;17.40;99.90;;;17.85;72.51;101407.06;5253257;28;20045;-68
2022/07/05 01:34:39;;;;;;;2.28;1.20;;;17.40;99.90;;;17.84;72.58;101413.22;5235502;28;20050;-68
2022/07/05 01:37:12;;;;;;;1.92;1.40;;;17.40;99.90;;;17.79;72.79;101415.78;5235249;28;20057;-69
2022/07/05 01:39:47;;;;;;;2.00;1.40;;;17.40;99.90;;;17.73;73.12;101409.50;5235452;28;20567;-69
2022/07/05 01:42:19;;;;;;;;;;;17.30;99.90;;;17.69;73.51;101412.97;5235661;28;20040;-68
2022/07/05 01:44:51;;;;;;;2.08;1.10;;;17.30;99.90;;;17.63;73.60;101409.34;5253001;28;20323;-68
2022/07/05 01:47:24;;;;;;;3.78;1.60;;;17.20;99.90;;;17.60;73.79;101414.59;5234125;28;20143;-68
2022/07/05 01:50:00;;;;;;;2.47;1.27;;;17.20;99.90;;;17.55;74.08;101411.00;5249581;28;20052;-68
2022/07/05 01:52:35;;;;;;;2.55;1.33;;;17.20;99.90;;;17.53;74.31;101407.41;5231936;28;20152;-68
2022/07/05 01:55:09;;;;;;;2.97;1.30;;;17.10;99.90;;;17.49;74.60;101410.88;5231641;28;20110;-68
2022/07/05 01:57:41;;;;;;;1.88;1.30;;;17.10;99.90;;;17.47;74.76;101416.97;5265423;28;20040;-68
2022/07/05 02:00:14;;;;;;;1.92;1.38;;;17.10;99.90;;;17.46;74.79;101416.09;5231682;28;20084;-68
2022/07/05 02:02:48;;;;;;;1.58;1.13;;;17.10;99.90;;;17.44;74.83;101412.56;5231876;28;20041;-69
2022/07/05 02:05:20;;;;;;;1.85;1.33;;;17.10;99.90;;;17.43;74.50;101421.31;5231507;28;20136;-68
2022/07/05 02:07:52;;;;;;;1.73;1.20;;;17.00;99.90;;;17.37;74.77;101426.50;5231671;28;20036;-67
2022/07/05 02:10:26;;;;;;;6.30;1.60;;;17.00;99.90;;;17.33;75.18;101422.03;5265192;28;20046;-68
2022/07/05 02:12:59;;;;;;;;;;;16.90;99.90;;;17.29;75.09;101422.84;5231828;28;20052;-68
2022/07/05 02:15:31;;;;;;;1.88;1.40;;;16.90;99.90;;;17.24;75.33;101425.41;5249367;28;19920;-67
2022/07/05 02:18:05;;;;;;;1.98;1.40;;;16.80;99.90;;;17.20;75.51;101427.94;5231594;28;20095;-68
2022/07/05 02:20:40;;;;;;;1.60;1.30;;;16.80;99.90;;;17.16;75.83;101421.75;5231374;28;20057;-68
2022/07/05 02:23:14;;;;;;;1.63;1.42;;;16.80;99.90;;;17.12;75.86;101425.16;5231548;28;20055;-68
2022/07/05 02:25:47;;;;;;;2.58;1.48;;;16.70;99.90;;;17.08;76.02;101421.63;5231190;28;20523;-68
2022/07/05 02:28:22;;;;;;;1.98;1.38;;;16.70;99.90;;;17.04;76.37;101427.69;5249385;28;20101;-68
2022/07/05 02:30:56;;;;;;;2.17;1.55;;;16.70;99.90;;;17.00;76.59;101424.94;5264787;28;20050;-68
2022/07/05 02:33:29;;;;;;;1.73;1.30;;;16.60;99.90;;;16.97;76.90;101427.53;5249383;28;20126;-67
2022/07/05 02:36:09;;;;;;;2.42;1.70;;;16.60;99.90;;;16.91;77.25;101430.94;5264550;28;20516;-68
2022/07/05 02:38:42;;;;;;;1.85;1.60;;;16.60;99.90;;;16.88;77.40;101427.34;5249152;28;20043;-68
2022/07/05 02:41:17;;;;;;;2.55;1.60;;;16.50;99.90;;;16.87;77.48;101429.09;5264480;28;20047;-68
2022/07/05 02:43:53;;;;;;;2.13;1.33;;;16.50;99.90;;;16.84;77.73;101425.53;5230882;28;20037;-68
2022/07/05 02:46:30;;;;;;;2.17;1.38;;;16.50;99.90;;;16.81;77.80;101432.50;5264248;28;20053;-67
2022/07/05 02:49:06;;;;;;;1.98;1.30;;;16.50;99.90;;;16.79;77.86;101430.69;5230925;28;20052;-67
2022/07/05 02:51:40;;;;;;;2.28;1.40;;;16.40;99.90;;;16.76;78.03;101435.91;5231024;28;20517;-68
2022/07/05 02:54:15;;;;;;;1.50;1.30;;;16.40;99.90;;;16.74;78.27;101430.59;5230693;28;20040;-69
2022/07/05 02:56:50;;;;;;;2.00;1.42;;;16.40;99.90;;;16.71;78.45;101434.94;5264010;28;20048;-68
2022/07/05 02:59:23;;;;;;;2.05;1.40;;;16.40;99.90;;;16.70;78.67;101441.06;5230544;28;20072;-68
2022/07/05 03:01:55;;;;;;;3.13;1.50;;;16.40;99.90;;;16.69;78.85;101444.50;5230627;28;20068;-68
2022/07/05 03:04:28;;;;;;;2.25;1.70;;;16.30;99.90;;;16.68;79.16;101440.09;5248453;28;20408;-68
2022/07/05 03:07:02;;;;;;;1.65;1.42;;;16.30;99.90;;;16.69;79.44;101441.84;5230385;28;20550;-67
2022/07/05 03:09:36;;;;;;;1.40;1.30;;;16.30;99.90;;;16.70;79.44;101434.03;5230477;28;20094;-68
2022/07/05 03:12:11;;;;;;;3.72;1.90;;;16.30;99.90;;;16.73;79.32;101428.81;5230304;28;20060;-68
2022/07/05 03:14:44;;;;;;;5.82;2.08;;;16.40;99.90;;;16.70;79.40;101425.25;5230012;28;20072;-69
2022/07/05 03:17:17;;;;;;;3.60;1.92;;;16.30;99.90;;;16.71;79.26;101430.56;5230348;28;20492;-68
2022/07/05 03:19:50;;;;;;;2.40;1.88;;;16.40;99.90;;;16.74;79.09;101427.09;5230439;28;20059;-67
2022/07/05 03:22:26;;;;;;;2.63;1.63;;;16.40;99.90;;;16.76;79.42;101433.28;5230217;28;20122;-68
2022/07/05 03:24:58;;;;;;;3.70;1.70;;;16.40;99.90;;;16.77;79.55;101424.53;5229985;28;20048;-69
2022/07/05 03:27:33;;;;;;;2.40;1.60;;;16.40;99.90;;;16.77;79.84;101435.06;5230095;28;20519;-68
2022/07/05 03:30:07;;;;;;;2.25;1.63;;;16.40;99.90;;;16.76;79.72;101441.19;5263652;28;20381;-68
2022/07/05 03:32:42;;;;;;;2.67;1.80;;;16.40;99.90;;;16.73;79.82;101439.34;5263463;28;20052;-68
2022/07/05 03:35:14;;;;;;;2.17;1.45;;;16.40;99.90;;;16.74;79.98;101440.25;5229934;28;20048;-68
2022/07/05 03:37:48;;;;;;;3.38;1.73;;;16.40;99.90;;;16.75;80.03;101444.66;5230169;28;20119;-68
2022/07/05 03:40:20;;;;;;;4.15;1.73;;;16.40;99.90;;;16.76;79.42;101443.81;5229804;28;20377;-68
2022/07/05 03:42:54;;;;;;;2.03;1.50;;;16.40;99.90;;;16.78;79.27;101447.34;5247584;28;20044;-67
2022/07/05 03:45:26;;;;;;;2.03;1.73;;;16.40;99.90;;;16.79;79.02;101447.38;5229526;28;20052;-68
2022/07/05 03:48:00;;;;;;;4.07;2.22;;;16.50;99.90;;;16.77;78.78;101442.94;5247570;28;20133;-68
2022/07/05 03:50:33;;;;;;;3.38;2.00;;;16.40;99.90;;;16.79;78.76;101441.22;5263365;28;20041;-67
2022/07/05 03:53:05;;;;;;;4.90;2.05;;;16.40;99.90;;;16.78;78.69;101442.09;5229659;28;20045;-67
2022/07/05 03:55:37;;;;;;;3.08;2.10;;;16.40;99.90;;;16.76;78.29;101444.69;5229461;28;20036;-68
2022/07/05 03:58:12;;;;;;;3.10;2.10;;;16.40;99.90;;;16.76;78.40;101435.91;5229934;28;20455;-68
2022/07/05 04:00:46;;;;;;;2.95;2.20;;;16.40;99.90;;;16.77;78.24;101442.94;5263052;28;20040;-68
2022/07/05 04:03:22;;;;;;;3.50;1.98;;;16.40;99.90;;;16.74;78.45;101446.38;5229553;28;20073;-68
2022/07/05 04:05:55;;;;;;;3.85;2.38;;;16.40;99.90;;;16.74;78.98;101448.13;5262803;28;20520;-68
2022/07/05 04:08:29;;;;;;;2.97;1.98;;;16.40;99.90;;;16.76;79.45;101447.34;5262985;28;20040;-69
2022/07/05 04:11:01;;;;;;;2.03;1.80;;;16.40;99.90;;;16.80;79.59;101448.25;5246929;28;20036;-68
2022/07/05 04:13:37;;;;;;;2.65;1.73;;;16.50;99.90;;;16.82;79.68;101454.44;5263203;28;20045;-69
2022/07/05 04:16:10;;;;;;;4.13;2.00;;;16.40;99.90;;;16.86;80.10;101453.66;5262633;28;20098;-67
2022/07/05 04:18:42;;;;;;;3.60;2.17;;;16.50;99.90;;;16.87;80.15;101455.41;5262839;28;20044;-68
2022/07/05 04:21:15;;;;;;;3.25;2.13;;;16.50;99.90;;;16.89;80.17;101464.25;5247284;28;20115;-68
2022/07/05 04:23:48;;;;;;;4.88;1.90;;;16.50;99.90;;;16.93;80.70;101466.06;5262818;28;20404;-68
2022/07/05 04:26:23;;;;;;;3.78;2.15;;;16.60;99.90;;;16.99;80.96;101474.09;5228826;28;20127;-68
2022/07/05 04:28:57;;;;;;;4.15;2.35;;;16.60;99.90;;;17.08;81.47;101486.56;5247309;28;20093;-68
2022/07/05 04:31:33;;;;;;;4.50;2.30;;;16.70;99.90;;;17.17;81.70;101480.59;5229398;28;20040;-68
2022/07/05 04:34:05;;;;;;;4.55;2.47;;;16.80;99.90;;;17.25;82.02;101482.50;5262669;28;20045;-69
2022/07/05 04:36:40;;;;;;;4.25;2.25;;;16.90;99.90;;;17.35;82.22;101473.03;5228911;28;20048;-68
2022/07/05 04:39:13;;;;;;;3.20;2.05;;;17.00;99.90;;;17.43;82.21;101468.78;5229354;28;20570;-68
2022/07/05 04:41:53;;;;;;;4.00;2.30;;;17.10;99.90;;;17.53;81.93;101486.50;5229079;28;20053;-68
2022/07/05 04:44:28;;;;;;;4.45;2.35;;;17.10;99.90;;;17.66;82.11;101486.72;5229027;28;20450;-68
2022/07/05 04:47:00;;;;;;;4.63;2.45;;;17.20;99.90;;;17.74;82.05;101485.16;5246962;28;20413;-68
2022/07/05 04:49:32;;;;;;;4.05;2.42;;;17.30;99.90;;;17.83;82.00;101490.56;5247091;28;20041;-68
2022/07/05 04:52:05;;;;;;;3.20;2.13;;;17.40;99.90;;;17.94;81.73;101493.38;5228877;28;20102;-68
2022/07/05 04:54:39;;;;;;;5.53;2.70;;;17.50;99.90;;;18.02;81.48;101497.91;5262372;28;20489;-67
2022/07/05 04:57:12;;;;;;;6.53;2.20;;;17.60;99.90;;;18.10;81.00;101490.09;5246849;28;20040;-69
2022/07/05 04:59:45;;;;;;;3.35;2.20;;;17.70;99.90;;;18.12;80.84;101481.31;5246831;28;20124;-68
2022/07/05 05:02:17;;;;;;;3.65;2.20;;;17.70;99.90;;;18.17;80.46;101484.94;5246837;28;20420;-67
2022/07/05 05:04:50;;;;;;;3.63;2.42;;;17.80;99.90;;;18.22;79.89;101492.03;5246538;28;20123;-68
2022/07/05 05:07:22;;;;;;;3.10;2.05;;;17.80;99.90;;;18.24;78.97;101500.84;5246756;28;20044;-68
2022/07/05 05:09:54;;;;;;;4.80;2.67;;;17.80;99.90;;;18.25;78.63;101495.59;5246970;28;20044;-70
2022/07/05 05:12:26;;;;;;;4.88;2.53;;;17.80;99.90;;;18.30;78.93;101493.91;5246633;28;20094;-68
2022/07/05 05:15:00;;;;;;;4.53;2.78;;;17.90;99.90;;;18.70;78.42;101500.63;5246385;28;20123;-68
2022/07/05 05:17:37;;;;;;;4.47;2.72;;;18.20;99.90;;;19.22;75.17;101495.97;5246653;28;20131;-68
2022/07/05 05:20:14;;;;;;;5.82;2.75;;;18.60;99.90;;;19.56;72.43;101493.66;5246727;28;20180;-68
2022/07/05 05:22:47;;;;;;;5.32;2.72;;;18.90;99.90;;;19.79;69.94;101497.41;5228885;28;20045;-67
2022/07/05 05:25:19;;;;;;;3.55;2.40;;;19.20;99.90;;;19.95;69.16;101500.16;5250310;28;20116;-68
2022/07/05 05:27:51;;;;;;;3.80;2.30;;;19.30;99.90;;;20.12;68.31;101498.53;5250366;28;20036;-69
2022/07/05 05:30:25;;;;;;;5.18;2.78;;;19.50;99.90;;;20.56;66.87;101505.91;5250496;28;20052;-69
2022/07/05 05:32:57;;;;;;;5.47;2.60;;;19.80;99.40;;;21.15;64.23;101507.88;5232325;28;20048;-68
2022/07/05 05:35:29;;;;;;;5.00;2.38;;;20.30;98.40;;;21.74;61.63;101516.84;5250020;28;20041;-69
2022/07/05 05:38:01;;;;;;;4.20;2.50;;;20.80;97.10;;;22.22;59.64;101513.28;5250286;28;20041;-68
2022/07/05 05:40:33;;;;;;;5.93;2.22;;;21.30;96.10;;;22.66;57.73;101518.50;5250181;28;20072;-67
2022/07/05 05:43:06;;;;;;;4.28;2.58;;;21.60;94.70;;;22.91;56.02;101514.00;5265795;28;20144;-68
2022/07/05 05:45:39;;;;;;;3.78;2.53;;;22.00;93.40;;;23.10;55.70;101519.22;5263459;22;20055;-85
2022/07/05 05:48:11;;;;;;;3.88;2.42;;;22.20;92.80;;;23.25;54.82;101517.34;5186853;28;20107;-85
2022/07/05 05:50:44;;;;;;;4.03;2.30;;;22.30;92.00;;;23.40;54.19;101521.69;5214363;28;20041;-86
2022/07/05 05:53:16;;;;;;;4.60;2.28;;;22.50;91.30;;;23.78;53.28;101518.78;5213812;28;20048;-85
2022/07/05 05:55:48;;;;;;;3.42;2.20;;;22.80;90.60;;;24.03;51.92;101507.91;5193005;28;20052;-86
2022/07/05 05:58:23;;;;;;;3.53;2.10;;;23.10;89.00;;;24.17;51.64;101521.97;5191715;28;20112;-84
2022/07/05 06:00:57;;;;;;;3.15;2.40;;;23.30;87.10;;;24.21;51.91;101528.19;5172804;28;20528;-87
2022/07/05 06:03:29;;;;;;;3.95;2.45;;;23.40;87.30;;;24.35;51.32;101523.63;5172677;28;20053;-86
2022/07/05 06:06:01;;;;;;;4.60;2.13;;;23.40;86.70;;;24.63;50.58;101516.19;5188610;28;20057;-87
2022/07/05 06:08:33;;;;;;;4.13;2.42;;;23.70;85.20;;;25.02;49.44;101533.47;5188824;28;20107;-89
2022/07/05 06:11:05;;;;;;;3.55;2.10;;;23.90;83.40;;;25.38;49.31;101531.25;5173292;28;20053;-86
2022/07/05 06:13:37;;;;;;;4.82;2.15;;;24.30;83.00;;;25.66;48.10;101540.56;5172853;28;20045;-87
2022/07/05 06:16:11;;;;;;;3.17;2.10;;;24.50;80.80;;;25.77;47.74;101529.78;5173841;28;20539;-86
2022/07/05 06:18:43;;;;;;;4.40;2.20;;;24.80;79.20;;;26.05;47.06;101535.50;5184638;28;20088;-86
2022/07/05 06:21:15;;;;;;;3.83;2.10;;;25.00;78.00;;;26.45;46.02;101537.47;5211656;28;20407;-88
2022/07/05 06:23:47;;;;;;;2.50;2.15;;;25.40;76.40;;;26.74;45.29;101540.47;5193000;28;20049;-87
2022/07/05 06:26:19;;;;;;;4.05;2.03;;;25.60;75.10;;;26.87;44.65;101550.94;5209671;28;20092;-88
2022/07/05 06:28:51;;;;;;;4.22;2.08;;;25.80;73.40;;;27.02;44.09;101553.25;5193967;28;20042;-87
2022/07/05 06:31:25;;;;;;;4.25;2.60;;;26.00;72.40;;;27.26;43.63;101555.44;5210962;28;20048;-86
2022/07/05 06:33:57;;;;;;;3.78;2.13;;;26.20;71.20;;;27.42;43.75;101555.09;5194161;28;20041;-86
2022/07/05 06:36:29;;;;;;;2.65;1.90;;;26.30;71.30;;;27.35;42.24;101554.34;5194635;28;20060;-83
2022/07/05 06:39:01;;;;;;;3.33;1.80;;;26.30;68.80;;;27.04;42.82;101556.78;5178308;28;20052;-83
2022/07/05 06:41:33;;;;;;;2.42;1.70;;;26.10;68.80;;;26.59;43.77;101562.16;5178976;28;20041;-82
2022/07/05 06:44:05;;;;;;;2.78;1.75;;;25.70;69.60;;;26.17;44.95;101562.00;5173047;28;20057;-84
2022/07/05 06:46:39;;;;;;;4.15;1.73;;;25.40;70.30;;;25.86;46.08;101558.09;5185497;28;20129;-84
2022/07/05 06:49:11;;;;;;;2.33;1.60;;;25.10;71.60;;;25.59;46.76;101560.25;5175335;28;20048;-83
2022/07/05 06:51:43;;;;;;;4.13;1.52;;;24.90;72.50;;;;;;5196643;28;20064;-83
2022/07/05 06:54:15;;;;;;;2.60;1.50;;;24.70;73.00;;;25.23;46.85;101567.00;5164338;28;20488;-83
2022/07/05 06:56:47;;;;;;;2.85;1.40;;;24.50;72.80;;;25.11;47.14;101565.41;5169530;28;20054;-83
2022/07/05 06:59:19;;;;;;;4.72;1.85;;;24.30;73.00;;;25.05;47.36;101561.94;5170188;28;20050;-86
2022/07/05 07:01:52;;;;;;;4.93;1.80;;;24.20;73.30;;;24.97;47.51;101559.31;5191768;28;20045;-85
2022/07/05 07:04:25;;;;;;;2.33;1.50;;;24.10;73.50;;;24.92;47.49;101555.84;5204192;28;20502;-86
2022/07/05 07:06:57;;;;;;;2.08;1.35;;;24.10;73.60;;;24.91;47.42;101564.75;5176356;28;20039;-87
2022/07/05 07:09:28;;;;;;;1.70;1.13;;;24.10;73.70;;;24.97;47.11;101553.97;5183797;28;20294;-86
2022/07/05 07:12:00;;;;;;;2.28;1.25;;;24.10;73.40;;;25.05;46.56;101561.94;5180579;28;20050;-86
2022/07/05 07:14:32;;;;;;;2.55;1.40;;;24.10;73.00;;;25.13;46.90;101565.38;5155386;28;20046;-85
2022/07/05 07:17:07;;;;;;;1.35;1.08;;;24.20;72.90;;;25.21;46.02;101570.59;5153866;28;20416;-86
2022/07/05 07:19:39;;;;;;;2.25;1.20;;;24.30;72.20;;;25.23;45.38;101564.34;5170538;28;20118;-85
2022/07/05 07:22:11;;;;;;;3.25;1.25;;;24.30;71.40;;;25.29;45.54;101571.38;5170107;28;20460;-84
2022/07/05 07:24:43;;;;;;;2.85;1.48;;;24.40;71.40;;;25.23;45.80;101566.13;5153970;28;20047;-84
2022/07/05 07:27:15;;;;;;;3.15;1.27;;;24.30;71.30;;;25.30;45.89;101567.81;5171361;28;20045;-85
2022/07/05 07:29:47;;;;;;;1.42;1.23;;;24.40;71.40;;;25.46;45.17;101572.03;5153742;28;20046;-84
2022/07/05 07:32:20;;;;;;;2.10;1.00;;;24.50;71.00;;;25.65;44.80;101575.31;5171393;28;20054;-84
2022/07/05 07:34:52;;;;;;;1.67;1.02;;;24.60;70.60;;;25.85;44.64;101572.38;5172609;28;20042;-84
2022/07/05 07:37:24;;;;;;;2.00;1.27;;;24.80;70.20;;;26.02;44.11;101575.66;5157558;28;20533;-85
2022/07/05 07:39:57;;;;;;;2.63;1.10;;;25.00;69.50;;;26.11;43.93;101572.81;5181737;28;20413;-85
2022/07/05 07:42:29;;;;;;;2.40;1.20;;;25.10;69.50;;;26.15;43.97;101571.88;5196632;28;20050;-83
2022/07/05 07:45:03;;;;;;;2.90;1.30;;;25.10;69.10;;;26.27;43.94;101575.19;5207910;28;20046;-85
2022/07/05 07:47:37;;;;;;;2.35;1.20;;;25.20;69.10;;;26.42;44.04;101566.97;5193018;28;20045;-84
2022/07/05 07:50:10;;;;;;;1.70;1.13;;;25.30;69.50;;;26.57;43.88;101569.31;5203901;28;20060;-85
2022/07/05 07:52:42;;;;;;;1.20;1.10;;;25.40;69.40;;;26.69;43.09;101569.09;5200102;28;20042;-84
2022/07/05 07:55:15;;;;;;;3.40;1.20;;;25.50;68.50;;;26.75;42.76;101577.00;5202077;28;20048;-84
2022/07/05 07:57:47;;;;;;;1.65;1.30;;;25.60;67.90;;;26.87;42.76;101569.66;5199950;28;20045;-84
2022/07/05 08:00:19;;;;;;;1.48;1.08;;;25.70;67.80;;;26.95;42.42;101573.91;5183097;28;20060;-85
2022/07/05 08:02:52;;;;;;;3.03;1.00;;;25.70;67.30;;;27.09;41.88;101573.66;5175684;28;20715;-84
2022/07/05 08:05:24;;;;;;;1.42;1.00;;;25.80;66.70;;;27.25;41.82;101575.06;5183218;28;20049;-83
2022/07/05 08:07:57;;;;;;;1.52;1.00;;;25.90;66.70;;;27.46;41.67;101580.88;5186070;28;20038;-84
2022/07/05 08:10:29;;;;;;;4.22;1.23;;;26.10;66.70;;;27.75;40.99;101586.47;5212318;28;20049;-84
2022/07/05 08:13:01;;;;;;;3.15;1.20;;;26.20;66.00;;;27.85;39.86;101579.97;5215167;28;20065;-84
2022/07/05 08:15:33;;;;;;;2.58;1.50;;;26.30;64.70;;;28.15;40.14;101581.91;5198307;28;20052;-84
2022/07/05 08:23:46;;;;;;;2.58;1.30;;;26.90;64.00;;;29.50;38.00;101577.19;5210087;28;20076;-86
2022/07/05 08:26:19;;;;;;;5.50;1.40;;;27.20;63.90;;;29.98;36.82;101574.72;5193116;28;20574;-86
2022/07/05 08:28:51;;;;;;;3.13;1.35;;;27.40;62.90;;;30.62;36.10;101578.81;5213024;28;20049;-84
2022/07/05 08:31:23;;;;;;;1.52;1.00;;;27.70;62.50;;;31.16;35.24;101561.56;5219988;28;20045;-84
2022/07/05 08:33:57;;;;;;;2.30;0.80;;;28.00;61.50;;;31.81;34.29;101566.16;5216640;28;20049;-83
2022/07/05 08:36:29;;;;;;;1.60;1.00;;;28.30;60.70;;;32.54;33.19;101563.03;5196562;28;20041;-82
2022/07/05 08:39:01;;;;;;;2.03;1.10;;;28.70;60.10;;;33.29;31.31;101570.38;5200530;28;20076;-82
2022/07/05 08:41:38;;;;;;;0.80;0.80;;;29.10;58.30;;;33.91;29.98;101571.00;5196630;28;20042;-83
2022/07/05 08:44:10;;;;;;;2.65;1.00;;;29.40;56.80;;;35.01;29.15;101565.19;5214135;28;20080;-85
2022/07/05 08:46:44;;;;;;;1.98;1.00;;;30.00;56.40;;;35.99;27.80;101575.84;5194435;28;20392;-84
2022/07/05 08:49:24;;;;;;;2.22;0.90;;;30.90;54.40;;;36.87;27.30;101567.75;5194060;28;20041;-84
2022/07/05 08:51:58;;;;;;;2.30;0.95;;;31.70;54.10;;;37.37;25.99;101570.91;5215043;28;20037;-85
2022/07/05 08:54:31;;;;;;;1.20;0.80;;;32.40;51.70;;;37.59;26.27;101570.34;5214177;28;20042;-85
2022/07/05 08:57:03;;;;;;;;;;;32.80;51.50;;;37.99;25.17;101577.59;5198627;28;20117;-84
2022/07/05 08:59:35;;;;;;;1.08;0.85;;;33.40;49.80;;;38.41;24.68;101574.75;5213876;28;19922;-85
2022/07/05 09:02:13;;;;;;;1.33;1.00;;;33.80;49.00;;;38.82;24.15;101574.56;5197817;28;20065;-84
2022/07/05 09:04:47;;;;;;;2.53;1.10;;;34.20;48.20;;;38.60;23.73;101571.59;5196877;28;20046;-84
2022/07/05 09:07:22;;;;;;;1.75;0.85;;;34.30;47.20;;;37.43;24.95;101581.34;5201732;28;20050;-85
2022/07/05 09:09:56;;;;;;;2.08;1.20;;;33.70;47.60;;;37.12;25.52;101579.75;5199916;28;20038;-84
2022/07/05 09:12:28;;;;;;;1.77;1.10;;;33.40;48.20;;;36.55;26.01;101579.72;5200300;28;20064;-82
2022/07/05 09:15:01;;;;;;;3.28;1.02;;;32.90;48.30;;;36.90;25.22;101586.53;5199396;28;20042;-84
2022/07/05 09:17:33;;;;;;;2.47;0.90;;;32.90;47.80;;;37.39;25.05;101583.41;5199763;28;20427;-84
2022/07/05 09:20:12;;;;;;;1.83;1.00;;;33.10;47.70;;;38.05;24.20;101587.19;5200562;28;20042;-84
2022/07/05 09:22:46;;;;;;;;;;;33.60;47.50;;;38.47;23.54;101579.75;5199067;28;20053;-83
2022/07/05 09:25:23;;;;;;;0.93;0.65;;;33.90;46.50;;;37.85;24.20;101580.38;5199163;28;19929;-84
2022/07/05 09:27:57;;;;;;;1.90;1.10;;;33.90;46.40;;;36.77;24.79;101582.81;5179557;28;20056;-83
2022/07/05 09:30:33;;;;;;;2.88;1.02;;;33.50;46.60;;;35.98;26.09;101579.53;5195768;28;20045;-83
2022/07/05 09:33:08;;;;;;;2.08;1.20;;;33.00;47.40;;;35.22;26.26;101574.84;5195517;28;20045;-83
2022/07/05 09:35:43;;;;;;;1.15;0.80;;;32.60;47.30;;;34.69;27.20;101573.22;5177684;28;20559;-84
2022/07/05 09:38:20;;;;;;;0.65;0.65;;;32.20;48.00;;;34.32;27.80;101581.50;5178004;28;20050;-85
2022/07/05 09:40:54;;;;;;;1.70;0.90;;;32.00;48.20;;;33.98;28.04;101577.84;5195689;28;20133;-84
2022/07/05 09:43:29;;;;;;;2.80;1.10;;;31.90;48.40;;;32.92;28.89;101565.81;5172172;28;20034;-86
2022/07/05 09:46:02;;;;;;;1.33;1.10;;;31.40;48.60;;;31.92;30.33;101565.72;5171628;28;20049;-85
2022/07/05 09:48:36;;;;;;;2.22;1.10;;;30.80;49.60;;;31.34;31.59;101560.88;5174430;28;20046;-86
2022/07/05 09:51:11;;;;;;;1.55;1.20;;;30.30;50.50;;;31.12;32.18;101565.31;5154024;28;20049;-88
2022/07/05 09:53:48;;;;;;;2.85;1.00;;;30.00;51.00;;;30.93;31.97;101570.53;5167976;28;20137;-88
2022/07/05 09:56:22;;;;;;;2.20;1.10;;;29.80;51.00;;;30.51;32.28;101569.31;5164070;28;20053;-85
2022/07/05 09:58:55;;;;;;;2.47;1.00;;;29.50;50.80;;;29.87;32.56;101568.84;5184819;28;20049;-85
2022/07/05 10:01:28;;;;;;;1.38;1.10;;;29.10;50.80;;;29.49;32.69;101567.38;5201970;28;20038;-86
2022/07/05 10:04:01;;;;;;;;;;;28.60;51.00;;;29.25;32.86;101569.00;5209011;28;20049;-87
2022/07/05 10:06:35;;;;;;;2.60;0.93;;;28.40;51.30;;;29.25;33.37;101566.31;5191521;28;20000;-86
2022/07/05 10:09:09;;;;;;;1.20;1.10;;;28.30;51.60;;;29.42;33.33;101572.06;5191988;28;20061;-88
2022/07/05 10:11:42;;;;;;;2.40;1.10;;;28.30;51.90;;;29.59;33.19;101567.97;5192485;28;20427;-87
2022/07/05 10:14:21;;;;;;;2.83;1.00;;;28.40;52.00;;;29.68;32.16;101565.88;5193087;28;20407;-87
2022/07/05 10:16:59;;;;;;;2.05;1.00;;;28.50;51.10;;;29.38;31.86;101565.00;5193231;28;20491;-87
2022/07/05 10:19:41;;;;;;;2.75;1.08;;;28.40;50.20;;;29.16;32.37;101566.63;5211484;28;20052;-85
2022/07/05 10:22:15;;;;;;;3.20;1.20;;;28.20;50.50;;;29.20;33.14;101568.25;5182038;28;20054;-85
2022/07/05 10:24:47;;;;;;;;;;;28.10;51.50;;;29.37;33.52;101565.06;5191813;28;20041;-84
2022/07/05 10:27:20;;;;;;;3.75;1.30;;;28.20;52.10;;;29.42;32.37;101574.75;5181647;28;19928;-85
2022/07/05 10:29:53;;;;;;;2.28;1.20;;;28.30;51.10;;;29.34;32.43;101568.75;5201852;28;22188;-84
2022/07/05 10:32:29;;;;;;;1.38;1.13;;;28.30;51.90;;;29.05;32.74;101564.25;5195892;28;20430;-87
2022/07/05 10:35:02;;;;;;;1.98;1.30;;;28.10;50.90;;;28.65;32.77;101564.50;5213720;28;20046;-87
2022/07/05 10:37:36;;;;;;;2.25;1.15;;;27.80;50.90;;;28.31;32.86;101557.38;5210793;28;20423;-85
2022/07/05 10:40:09;;;;;;;;;;;27.60;50.80;;;28.41;33.61;101562.47;5209941;28;20045;-87
2022/07/05 10:42:44;;;;;;;2.92;1.48;;;27.50;51.90;;;28.68;34.62;101564.41;5212096;28;19950;-81
2022/07/05 10:45:30;;;;;;;1.48;1.05;;;27.70;52.80;;;28.91;33.99;101561.97;5178027;28;20042;-85